sensor_id;sensor_type;location;lat;lon;timestamp;P1;durP1;ratioP1;P2;durP2;ratioP2
19446;SDS011;9862;49.462;11.054;2022-12-10T00:00:00;26.08;;;14.15;;
19446;SDS011;9862;49.462;11.054;2022-12-10T00:02:26;25.55;;;15.27;;
19446;SDS011;9862;49.462;11.054;2022-12-10T00:04:55;29.23;;;15.50;;
19446;SDS011;9862;49.462;11.054;2022-12-10T00:07:21;26.05;;;14.48;;
19446;SDS011;9862;49.462;11.054;2022-12-10T00:09:48;26.42;;;14.38;;
19446;SDS011;9862;49.462;11.054;2022-12-10T00:12:15;24.75;;;14.35;;
19446;SDS011;9862;49.462;11.054;2022-12-10T00:14:42;25.70;;;14.93;;
19446;SDS011;9862;49.462;11.054;2022-12-10T00:17:09;29.15;;;15.50;;
19446;SDS011;9862;49.462;11.054;2022-12-10T00:19:36;25.58;;;14.48;;
19446;SDS011;9862;49.462;11.054;2022-12-10T00:22:02;32.60;;;16.27;;
19446;SDS011;9862;49.462;11.054;2022-12-10T00:24:29;27.88;;;14.20;;
19446;SDS011;9862;49.462;11.054;2022-12-10T00:26:56;30.55;;;15.30;;
19446;SDS011;9862;49.462;11.054;2022-12-10T00:29:22;29.83;;;16.00;;
19446;SDS011;9862;49.462;11.054;2022-12-10T00:31:50;27.08;;;15.15;;
19446;SDS011;9862;49.462;11.054;2022-12-10T00:34:17;27.95;;;14.80;;
19446;SDS011;9862;49.462;11.054;2022-12-10T00:36:44;27.30;;;14.75;;
19446;SDS011;9862;49.462;11.054;2022-12-10T00:39:14;30.23;;;14.60;;
19446;SDS011;9862;49.462;11.054;2022-12-10T00:41:42;31.33;;;15.85;;
19446;SDS011;9862;49.462;11.054;2022-12-10T00:44:09;28.30;;;14.73;;
19446;SDS011;9862;49.462;11.054;2022-12-10T00:46:37;24.85;;;15.25;;
19446;SDS011;9862;49.462;11.054;2022-12-10T00:49:05;28.88;;;15.60;;
19446;SDS011;9862;49.462;11.054;2022-12-10T00:51:32;27.75;;;14.30;;
19446;SDS011;9862;49.462;11.054;2022-12-10T00:53:58;25.80;;;13.65;;
19446;SDS011;9862;49.462;11.054;2022-12-10T00:56:26;25.35;;;14.82;;
19446;SDS011;9862;49.462;11.054;2022-12-10T00:58:54;26.58;;;15.68;;
19446;SDS011;9862;49.462;11.054;2022-12-10T01:01:22;30.77;;;15.93;;
19446;SDS011;9862;49.462;11.054;2022-12-10T01:03:51;22.65;;;14.25;;
19446;SDS011;9862;49.462;11.054;2022-12-10T01:06:22;31.08;;;16.63;;
19446;SDS011;9862;49.462;11.054;2022-12-10T01:08:50;28.80;;;15.15;;
19446;SDS011;9862;49.462;11.054;2022-12-10T01:11:19;26.60;;;15.73;;
19446;SDS011;9862;49.462;11.054;2022-12-10T01:13:47;22.98;;;14.68;;
19446;SDS011;9862;49.462;11.054;2022-12-10T01:16:16;26.10;;;15.88;;
19446;SDS011;9862;49.462;11.054;2022-12-10T01:18:44;27.10;;;15.68;;
19446;SDS011;9862;49.462;11.054;2022-12-10T01:21:11;27.58;;;14.38;;
19446;SDS011;9862;49.462;11.054;2022-12-10T01:23:41;27.80;;;15.18;;
19446;SDS011;9862;49.462;11.054;2022-12-10T01:26:12;26.42;;;14.77;;
19446;SDS011;9862;49.462;11.054;2022-12-10T01:28:41;27.73;;;15.18;;
19446;SDS011;9862;49.462;11.054;2022-12-10T01:31:10;27.73;;;15.80;;
19446;SDS011;9862;49.462;11.054;2022-12-10T01:33:38;27.08;;;14.35;;
19446;SDS011;9862;49.462;11.054;2022-12-10T01:36:06;30.05;;;15.23;;
19446;SDS011;9862;49.462;11.054;2022-12-10T01:38:35;26.23;;;15.88;;
19446;SDS011;9862;49.462;11.054;2022-12-10T01:41:03;26.58;;;15.02;;
19446;SDS011;9862;49.462;11.054;2022-12-10T01:46:23;28.50;;;14.85;;
19446;SDS011;9862;49.462;11.054;2022-12-10T01:48:51;27.33;;;15.40;;
19446;SDS011;9862;49.462;11.054;2022-12-10T01:51:18;27.55;;;15.32;;
19446;SDS011;9862;49.462;11.054;2022-12-10T01:53:46;26.33;;;15.02;;
19446;SDS011;9862;49.462;11.054;2022-12-10T01:56:17;27.05;;;15.20;;
19446;SDS011;9862;49.462;11.054;2022-12-10T01:58:45;26.60;;;15.65;;
19446;SDS011;9862;49.462;11.054;2022-12-10T02:01:14;24.17;;;14.57;;
19446;SDS011;9862;49.462;11.054;2022-12-10T02:03:51;25.38;;;13.98;;
19446;SDS011;9862;49.462;11.054;2022-12-10T02:06:30;25.35;;;14.18;;
19446;SDS011;9862;49.462;11.054;2022-12-10T02:09:10;25.25;;;13.50;;
19446;SDS011;9862;49.462;11.054;2022-12-10T02:11:48;26.50;;;14.52;;
19446;SDS011;9862;49.462;11.054;2022-12-10T02:14:22;25.55;;;14.63;;
19446;SDS011;9862;49.462;11.054;2022-12-10T02:16:55;27.38;;;15.20;;
19446;SDS011;9862;49.462;11.054;2022-12-10T02:19:29;25.02;;;14.20;;
19446;SDS011;9862;49.462;11.054;2022-12-10T02:22:05;21.10;;;13.65;;
19446;SDS011;9862;49.462;11.054;2022-12-10T02:24:34;21.25;;;13.48;;
19446;SDS011;9862;49.462;11.054;2022-12-10T02:27:06;25.38;;;13.85;;
19446;SDS011;9862;49.462;11.054;2022-12-10T02:29:41;23.92;;;13.82;;
19446;SDS011;9862;49.462;11.054;2022-12-10T02:32:13;28.08;;;14.75;;
19446;SDS011;9862;49.462;11.054;2022-12-10T02:34:42;24.83;;;14.05;;
19446;SDS011;9862;49.462;11.054;2022-12-10T02:37:15;27.70;;;14.77;;
19446;SDS011;9862;49.462;11.054;2022-12-10T02:39:48;24.58;;;14.93;;
19446;SDS011;9862;49.462;11.054;2022-12-10T02:42:19;26.77;;;14.10;;
19446;SDS011;9862;49.462;11.054;2022-12-10T02:44:50;24.02;;;13.38;;
19446;SDS011;9862;49.462;11.054;2022-12-10T02:47:20;24.98;;;14.25;;
19446;SDS011;9862;49.462;11.054;2022-12-10T02:49:47;24.10;;;14.68;;
19446;SDS011;9862;49.462;11.054;2022-12-10T02:52:18;29.60;;;15.05;;
19446;SDS011;9862;49.462;11.054;2022-12-10T02:54:46;28.13;;;15.80;;
19446;SDS011;9862;49.462;11.054;2022-12-10T02:57:15;24.40;;;14.15;;
19446;SDS011;9862;49.462;11.054;2022-12-10T02:59:55;28.23;;;15.43;;
19446;SDS011;9862;49.462;11.054;2022-12-10T03:02:29;23.75;;;14.88;;
19446;SDS011;9862;49.462;11.054;2022-12-10T03:05:06;25.52;;;14.48;;
19446;SDS011;9862;49.462;11.054;2022-12-10T03:07:39;26.73;;;14.95;;
19446;SDS011;9862;49.462;11.054;2022-12-10T03:10:12;26.50;;;15.75;;
19446;SDS011;9862;49.462;11.054;2022-12-10T03:12:44;33.28;;;17.17;;
19446;SDS011;9862;49.462;11.054;2022-12-10T03:15:17;24.63;;;15.35;;
19446;SDS011;9862;49.462;11.054;2022-12-10T03:17:45;25.05;;;14.77;;
19446;SDS011;9862;49.462;11.054;2022-12-10T03:20:14;24.60;;;14.05;;
19446;SDS011;9862;49.462;11.054;2022-12-10T03:22:44;26.73;;;15.05;;
19446;SDS011;9862;49.462;11.054;2022-12-10T03:25:15;29.13;;;14.32;;
19446;SDS011;9862;49.462;11.054;2022-12-10T03:27:45;26.05;;;14.55;;
19446;SDS011;9862;49.462;11.054;2022-12-10T03:30:15;26.23;;;14.05;;
19446;SDS011;9862;49.462;11.054;2022-12-10T03:32:44;26.63;;;14.23;;
19446;SDS011;9862;49.462;11.054;2022-12-10T03:35:12;23.77;;;14.30;;
19446;SDS011;9862;49.462;11.054;2022-12-10T03:37:40;27.70;;;14.85;;
19446;SDS011;9862;49.462;11.054;2022-12-10T03:40:07;26.35;;;14.93;;
19446;SDS011;9862;49.462;11.054;2022-12-10T03:42:36;30.13;;;14.07;;
19446;SDS011;9862;49.462;11.054;2022-12-10T03:45:03;28.77;;;14.88;;
19446;SDS011;9862;49.462;11.054;2022-12-10T03:47:33;29.40;;;16.13;;
19446;SDS011;9862;49.462;11.054;2022-12-10T03:49:59;26.95;;;14.38;;
19446;SDS011;9862;49.462;11.054;2022-12-10T03:52:26;27.17;;;14.93;;
19446;SDS011;9862;49.462;11.054;2022-12-10T03:54:53;25.45;;;15.15;;
19446;SDS011;9862;49.462;11.054;2022-12-10T03:57:19;26.90;;;15.57;;
19446;SDS011;9862;49.462;11.054;2022-12-10T03:59:47;24.88;;;14.05;;
19446;SDS011;9862;49.462;11.054;2022-12-10T04:02:13;26.25;;;14.88;;
19446;SDS011;9862;49.462;11.054;2022-12-10T04:04:41;30.77;;;15.55;;
19446;SDS011;9862;49.462;11.054;2022-12-10T04:07:08;21.45;;;13.07;;
19446;SDS011;9862;49.462;11.054;2022-12-10T04:09:35;29.15;;;15.32;;
19446;SDS011;9862;49.462;11.054;2022-12-10T04:12:01;22.20;;;13.68;;
19446;SDS011;9862;49.462;11.054;2022-12-10T04:14:29;24.52;;;14.55;;
19446;SDS011;9862;49.462;11.054;2022-12-10T04:17:13;31.35;;;15.32;;
19446;SDS011;9862;49.462;11.054;2022-12-10T04:19:41;27.98;;;14.27;;
19446;SDS011;9862;49.462;11.054;2022-12-10T04:22:08;26.30;;;14.27;;
19446;SDS011;9862;49.462;11.054;2022-12-10T04:24:52;24.13;;;14.40;;
19446;SDS011;9862;49.462;11.054;2022-12-10T04:27:48;27.25;;;13.95;;
19446;SDS011;9862;49.462;11.054;2022-12-10T04:30:15;25.30;;;13.52;;
19446;SDS011;9862;49.462;11.054;2022-12-10T04:32:41;24.88;;;14.65;;
19446;SDS011;9862;49.462;11.054;2022-12-10T04:35:09;23.90;;;13.50;;
19446;SDS011;9862;49.462;11.054;2022-12-10T04:37:36;30.73;;;14.88;;
19446;SDS011;9862;49.462;11.054;2022-12-10T04:40:04;25.95;;;13.82;;
19446;SDS011;9862;49.462;11.054;2022-12-10T04:42:31;25.77;;;14.30;;
19446;SDS011;9862;49.462;11.054;2022-12-10T04:44:58;27.38;;;14.43;;
19446;SDS011;9862;49.462;11.054;2022-12-10T04:47:24;28.42;;;15.55;;
19446;SDS011;9862;49.462;11.054;2022-12-10T04:49:51;27.73;;;15.45;;
19446;SDS011;9862;49.462;11.054;2022-12-10T04:52:19;26.90;;;15.68;;
19446;SDS011;9862;49.462;11.054;2022-12-10T04:54:46;25.65;;;14.50;;
19446;SDS011;9862;49.462;11.054;2022-12-10T04:57:12;28.25;;;14.88;;
19446;SDS011;9862;49.462;11.054;2022-12-10T04:59:39;26.75;;;15.13;;
19446;SDS011;9862;49.462;11.054;2022-12-10T05:02:06;28.17;;;15.73;;
19446;SDS011;9862;49.462;11.054;2022-12-10T05:04:32;26.25;;;14.05;;
19446;SDS011;9862;49.462;11.054;2022-12-10T05:07:00;25.92;;;15.30;;
19446;SDS011;9862;49.462;11.054;2022-12-10T05:09:28;25.10;;;14.60;;
19446;SDS011;9862;49.462;11.054;2022-12-10T05:11:54;21.92;;;13.32;;
19446;SDS011;9862;49.462;11.054;2022-12-10T05:14:21;24.30;;;13.55;;
19446;SDS011;9862;49.462;11.054;2022-12-10T05:16:48;23.65;;;14.40;;
19446;SDS011;9862;49.462;11.054;2022-12-10T05:19:16;26.77;;;14.75;;
19446;SDS011;9862;49.462;11.054;2022-12-10T05:21:48;25.90;;;14.27;;
19446;SDS011;9862;49.462;11.054;2022-12-10T05:24:34;27.45;;;15.65;;
19446;SDS011;9862;49.462;11.054;2022-12-10T05:27:01;26.30;;;14.57;;
19446;SDS011;9862;49.462;11.054;2022-12-10T05:29:28;27.40;;;15.57;;
19446;SDS011;9862;49.462;11.054;2022-12-10T05:31:54;25.58;;;14.30;;
19446;SDS011;9862;49.462;11.054;2022-12-10T05:34:21;27.02;;;14.55;;
19446;SDS011;9862;49.462;11.054;2022-12-10T05:36:48;28.38;;;14.93;;
19446;SDS011;9862;49.462;11.054;2022-12-10T05:39:15;25.30;;;14.77;;
19446;SDS011;9862;49.462;11.054;2022-12-10T05:41:43;26.02;;;15.10;;
19446;SDS011;9862;49.462;11.054;2022-12-10T05:44:10;24.90;;;14.30;;
19446;SDS011;9862;49.462;11.054;2022-12-10T05:46:37;31.35;;;15.13;;
19446;SDS011;9862;49.462;11.054;2022-12-10T05:49:05;32.67;;;16.77;;
19446;SDS011;9862;49.462;11.054;2022-12-10T05:51:33;26.13;;;14.55;;
19446;SDS011;9862;49.462;11.054;2022-12-10T05:54:01;27.75;;;15.15;;
19446;SDS011;9862;49.462;11.054;2022-12-10T05:56:29;27.05;;;15.77;;
19446;SDS011;9862;49.462;11.054;2022-12-10T05:58:58;26.15;;;14.90;;
19446;SDS011;9862;49.462;11.054;2022-12-10T06:01:26;29.45;;;14.60;;
19446;SDS011;9862;49.462;11.054;2022-12-10T06:03:54;29.17;;;15.15;;
19446;SDS011;9862;49.462;11.054;2022-12-10T06:06:23;26.13;;;15.55;;
19446;SDS011;9862;49.462;11.054;2022-12-10T06:08:51;29.38;;;15.35;;
19446;SDS011;9862;49.462;11.054;2022-12-10T06:11:18;28.48;;;15.00;;
19446;SDS011;9862;49.462;11.054;2022-12-10T06:13:44;28.88;;;15.77;;
19446;SDS011;9862;49.462;11.054;2022-12-10T06:16:13;24.50;;;14.82;;
19446;SDS011;9862;49.462;11.054;2022-12-10T06:18:41;25.98;;;14.88;;
19446;SDS011;9862;49.462;11.054;2022-12-10T06:21:08;27.83;;;13.75;;
19446;SDS011;9862;49.462;11.054;2022-12-10T06:23:37;29.80;;;15.95;;
19446;SDS011;9862;49.462;11.054;2022-12-10T06:26:04;28.35;;;15.77;;
19446;SDS011;9862;49.462;11.054;2022-12-10T06:28:31;28.80;;;15.35;;
19446;SDS011;9862;49.462;11.054;2022-12-10T06:30:58;24.63;;;15.45;;
19446;SDS011;9862;49.462;11.054;2022-12-10T06:33:26;30.50;;;15.45;;
19446;SDS011;9862;49.462;11.054;2022-12-10T06:35:53;27.35;;;15.15;;
19446;SDS011;9862;49.462;11.054;2022-12-10T06:38:20;26.98;;;15.80;;
19446;SDS011;9862;49.462;11.054;2022-12-10T06:40:46;31.80;;;16.65;;
19446;SDS011;9862;49.462;11.054;2022-12-10T06:43:13;29.85;;;16.15;;
19446;SDS011;9862;49.462;11.054;2022-12-10T06:45:40;30.48;;;15.90;;
19446;SDS011;9862;49.462;11.054;2022-12-10T06:48:07;26.60;;;15.25;;
19446;SDS011;9862;49.462;11.054;2022-12-10T06:50:36;27.95;;;14.93;;
19446;SDS011;9862;49.462;11.054;2022-12-10T06:53:02;25.00;;;14.40;;
19446;SDS011;9862;49.462;11.054;2022-12-10T06:55:29;26.80;;;14.23;;
19446;SDS011;9862;49.462;11.054;2022-12-10T06:57:56;29.88;;;15.55;;
19446;SDS011;9862;49.462;11.054;2022-12-10T07:00:22;28.58;;;15.63;;
19446;SDS011;9862;49.462;11.054;2022-12-10T07:02:49;32.30;;;15.48;;
19446;SDS011;9862;49.462;11.054;2022-12-10T07:05:16;34.40;;;17.13;;
19446;SDS011;9862;49.462;11.054;2022-12-10T07:07:44;34.70;;;17.40;;
19446;SDS011;9862;49.462;11.054;2022-12-10T07:10:11;31.77;;;15.68;;
19446;SDS011;9862;49.462;11.054;2022-12-10T07:12:38;36.60;;;16.55;;
19446;SDS011;9862;49.462;11.054;2022-12-10T07:15:05;31.88;;;15.43;;
19446;SDS011;9862;49.462;11.054;2022-12-10T07:17:32;33.75;;;16.35;;
19446;SDS011;9862;49.462;11.054;2022-12-10T07:20:00;29.60;;;14.90;;
19446;SDS011;9862;49.462;11.054;2022-12-10T07:22:27;32.35;;;17.67;;
19446;SDS011;9862;49.462;11.054;2022-12-10T07:24:55;34.90;;;15.95;;
19446;SDS011;9862;49.462;11.054;2022-12-10T07:27:22;30.85;;;16.63;;
19446;SDS011;9862;49.462;11.054;2022-12-10T07:29:49;28.98;;;14.63;;
19446;SDS011;9862;49.462;11.054;2022-12-10T07:32:16;29.77;;;16.05;;
19446;SDS011;9862;49.462;11.054;2022-12-10T07:34:42;28.30;;;14.38;;
19446;SDS011;9862;49.462;11.054;2022-12-10T07:37:09;27.77;;;15.13;;
19446;SDS011;9862;49.462;11.054;2022-12-10T07:39:36;29.17;;;14.77;;
19446;SDS011;9862;49.462;11.054;2022-12-10T07:42:04;29.40;;;15.93;;
19446;SDS011;9862;49.462;11.054;2022-12-10T07:44:30;28.92;;;15.25;;
19446;SDS011;9862;49.462;11.054;2022-12-10T07:46:57;26.45;;;14.75;;
19446;SDS011;9862;49.462;11.054;2022-12-10T07:49:24;31.77;;;15.02;;
19446;SDS011;9862;49.462;11.054;2022-12-10T07:51:50;28.58;;;14.55;;
19446;SDS011;9862;49.462;11.054;2022-12-10T07:54:17;34.38;;;15.40;;
19446;SDS011;9862;49.462;11.054;2022-12-10T07:56:45;30.50;;;15.43;;
19446;SDS011;9862;49.462;11.054;2022-12-10T07:59:13;28.40;;;15.80;;
19446;SDS011;9862;49.462;11.054;2022-12-10T08:01:39;32.10;;;16.08;;
19446;SDS011;9862;49.462;11.054;2022-12-10T08:04:06;30.70;;;15.60;;
19446;SDS011;9862;49.462;11.054;2022-12-10T08:06:33;31.75;;;14.85;;
19446;SDS011;9862;49.462;11.054;2022-12-10T08:09:00;32.22;;;15.82;;
19446;SDS011;9862;49.462;11.054;2022-12-10T08:11:26;30.48;;;15.20;;
19446;SDS011;9862;49.462;11.054;2022-12-10T08:13:53;32.47;;;15.85;;
19446;SDS011;9862;49.462;11.054;2022-12-10T08:16:23;32.63;;;16.13;;
19446;SDS011;9862;49.462;11.054;2022-12-10T08:18:51;37.20;;;15.88;;
19446;SDS011;9862;49.462;11.054;2022-12-10T08:21:18;30.75;;;15.50;;
19446;SDS011;9862;49.462;11.054;2022-12-10T08:23:46;33.08;;;16.30;;
19446;SDS011;9862;49.462;11.054;2022-12-10T08:26:14;38.55;;;18.35;;
19446;SDS011;9862;49.462;11.054;2022-12-10T08:28:42;32.55;;;15.32;;
19446;SDS011;9862;49.462;11.054;2022-12-10T08:31:10;30.48;;;16.25;;
19446;SDS011;9862;49.462;11.054;2022-12-10T08:33:39;31.25;;;15.23;;
19446;SDS011;9862;49.462;11.054;2022-12-10T08:36:07;30.27;;;15.80;;
19446;SDS011;9862;49.462;11.054;2022-12-10T08:38:35;30.92;;;16.42;;
19446;SDS011;9862;49.462;11.054;2022-12-10T08:41:05;25.98;;;13.82;;
19446;SDS011;9862;49.462;11.054;2022-12-10T08:43:33;31.65;;;16.60;;
19446;SDS011;9862;49.462;11.054;2022-12-10T08:46:00;29.13;;;15.90;;
19446;SDS011;9862;49.462;11.054;2022-12-10T08:48:27;35.53;;;17.05;;
19446;SDS011;9862;49.462;11.054;2022-12-10T08:50:55;32.90;;;16.10;;
19446;SDS011;9862;49.462;11.054;2022-12-10T08:53:22;32.67;;;16.40;;
19446;SDS011;9862;49.462;11.054;2022-12-10T08:55:49;36.78;;;17.02;;
19446;SDS011;9862;49.462;11.054;2022-12-10T08:58:16;33.13;;;17.02;;
19446;SDS011;9862;49.462;11.054;2022-12-10T09:00:43;37.35;;;17.73;;
19446;SDS011;9862;49.462;11.054;2022-12-10T09:03:10;33.97;;;17.63;;
19446;SDS011;9862;49.462;11.054;2022-12-10T09:05:36;33.90;;;16.33;;
19446;SDS011;9862;49.462;11.054;2022-12-10T09:08:05;36.72;;;16.85;;
19446;SDS011;9862;49.462;11.054;2022-12-10T09:10:31;31.17;;;16.85;;
19446;SDS011;9862;49.462;11.054;2022-12-10T09:12:58;35.70;;;17.63;;
19446;SDS011;9862;49.462;11.054;2022-12-10T09:15:25;35.25;;;17.20;;
19446;SDS011;9862;49.462;11.054;2022-12-10T09:17:51;34.22;;;17.65;;
19446;SDS011;9862;49.462;11.054;2022-12-10T09:20:18;34.20;;;16.20;;
19446;SDS011;9862;49.462;11.054;2022-12-10T09:22:44;31.90;;;17.02;;
19446;SDS011;9862;49.462;11.054;2022-12-10T09:25:13;34.70;;;18.10;;
19446;SDS011;9862;49.462;11.054;2022-12-10T09:27:40;34.95;;;17.50;;
19446;SDS011;9862;49.462;11.054;2022-12-10T09:30:07;35.17;;;18.45;;
19446;SDS011;9862;49.462;11.054;2022-12-10T09:32:35;34.42;;;16.35;;
19446;SDS011;9862;49.462;11.054;2022-12-10T09:35:02;30.05;;;17.20;;
19446;SDS011;9862;49.462;11.054;2022-12-10T09:37:30;34.25;;;17.60;;
19446;SDS011;9862;49.462;11.054;2022-12-10T09:39:57;34.42;;;18.23;;
19446;SDS011;9862;49.462;11.054;2022-12-10T09:42:28;37.65;;;17.65;;
19446;SDS011;9862;49.462;11.054;2022-12-10T09:45:05;34.35;;;18.52;;
19446;SDS011;9862;49.462;11.054;2022-12-10T09:47:40;38.30;;;17.60;;
19446;SDS011;9862;49.462;11.054;2022-12-10T09:50:16;36.88;;;18.15;;
19446;SDS011;9862;49.462;11.054;2022-12-10T09:52:47;31.08;;;16.88;;
19446;SDS011;9862;49.462;11.054;2022-12-10T09:55:16;36.00;;;18.48;;
19446;SDS011;9862;49.462;11.054;2022-12-10T09:57:47;59.50;;;26.15;;
19446;SDS011;9862;49.462;11.054;2022-12-10T10:00:20;32.45;;;17.33;;
19446;SDS011;9862;49.462;11.054;2022-12-10T10:02:49;31.98;;;16.95;;
19446;SDS011;9862;49.462;11.054;2022-12-10T10:05:20;34.03;;;16.75;;
19446;SDS011;9862;49.462;11.054;2022-12-10T10:07:50;34.10;;;17.75;;
19446;SDS011;9862;49.462;11.054;2022-12-10T10:10:20;34.92;;;17.70;;
19446;SDS011;9862;49.462;11.054;2022-12-10T10:12:54;30.77;;;16.98;;
19446;SDS011;9862;49.462;11.054;2022-12-10T10:15:26;33.08;;;17.35;;
19446;SDS011;9862;49.462;11.054;2022-12-10T10:17:57;34.65;;;15.90;;
19446;SDS011;9862;49.462;11.054;2022-12-10T10:20:27;32.72;;;17.40;;
19446;SDS011;9862;49.462;11.054;2022-12-10T10:22:55;37.72;;;17.85;;
19446;SDS011;9862;49.462;11.054;2022-12-10T10:25:25;37.38;;;18.75;;
19446;SDS011;9862;49.462;11.054;2022-12-10T10:27:54;36.42;;;18.00;;
19446;SDS011;9862;49.462;11.054;2022-12-10T10:30:21;35.58;;;17.23;;
19446;SDS011;9862;49.462;11.054;2022-12-10T10:32:50;33.75;;;17.42;;
19446;SDS011;9862;49.462;11.054;2022-12-10T10:35:22;31.88;;;17.55;;
19446;SDS011;9862;49.462;11.054;2022-12-10T10:37:58;35.10;;;18.33;;
19446;SDS011;9862;49.462;11.054;2022-12-10T10:40:27;39.35;;;17.77;;
19446;SDS011;9862;49.462;11.054;2022-12-10T10:42:59;39.95;;;18.13;;
19446;SDS011;9862;49.462;11.054;2022-12-10T10:45:34;32.75;;;17.27;;
19446;SDS011;9862;49.462;11.054;2022-12-10T10:48:06;32.95;;;17.13;;
19446;SDS011;9862;49.462;11.054;2022-12-10T10:50:37;34.95;;;18.05;;
19446;SDS011;9862;49.462;11.054;2022-12-10T10:53:19;36.55;;;18.67;;
19446;SDS011;9862;49.462;11.054;2022-12-10T10:55:48;37.00;;;17.75;;
19446;SDS011;9862;49.462;11.054;2022-12-10T10:58:18;35.40;;;17.83;;
19446;SDS011;9862;49.462;11.054;2022-12-10T11:00:55;38.20;;;18.77;;
19446;SDS011;9862;49.462;11.054;2022-12-10T11:03:24;35.17;;;18.92;;
19446;SDS011;9862;49.462;11.054;2022-12-10T11:05:52;34.67;;;17.52;;
19446;SDS011;9862;49.462;11.054;2022-12-10T11:08:20;33.65;;;17.95;;
19446;SDS011;9862;49.462;11.054;2022-12-10T11:10:47;38.45;;;18.48;;
19446;SDS011;9862;49.462;11.054;2022-12-10T11:13:20;38.25;;;18.30;;
19446;SDS011;9862;49.462;11.054;2022-12-10T11:15:54;36.88;;;18.55;;
19446;SDS011;9862;49.462;11.054;2022-12-10T11:18:24;36.80;;;17.95;;
19446;SDS011;9862;49.462;11.054;2022-12-10T11:20:57;39.17;;;17.90;;
19446;SDS011;9862;49.462;11.054;2022-12-10T11:23:29;38.03;;;18.52;;
19446;SDS011;9862;49.462;11.054;2022-12-10T11:26:02;39.80;;;18.58;;
19446;SDS011;9862;49.462;11.054;2022-12-10T11:28:42;37.10;;;17.95;;
19446;SDS011;9862;49.462;11.054;2022-12-10T11:31:23;39.88;;;18.92;;
19446;SDS011;9862;49.462;11.054;2022-12-10T11:34:05;41.13;;;16.70;;
19446;SDS011;9862;49.462;11.054;2022-12-10T11:36:41;43.15;;;20.02;;
19446;SDS011;9862;49.462;11.054;2022-12-10T11:39:21;40.42;;;19.60;;
19446;SDS011;9862;49.462;11.054;2022-12-10T11:42:00;38.72;;;18.10;;
19446;SDS011;9862;49.462;11.054;2022-12-10T11:44:36;38.60;;;17.85;;
19446;SDS011;9862;49.462;11.054;2022-12-10T11:50:10;38.88;;;18.95;;
19446;SDS011;9862;49.462;11.054;2022-12-10T11:52:50;41.78;;;19.25;;
19446;SDS011;9862;49.462;11.054;2022-12-10T11:55:30;45.45;;;20.73;;
19446;SDS011;9862;49.462;11.054;2022-12-10T11:58:17;37.58;;;18.58;;
19446;SDS011;9862;49.462;11.054;2022-12-10T12:00:58;34.55;;;18.30;;
19446;SDS011;9862;49.462;11.054;2022-12-10T12:03:43;43.22;;;20.50;;
19446;SDS011;9862;49.462;11.054;2022-12-10T12:06:43;41.15;;;20.60;;
19446;SDS011;9862;49.462;11.054;2022-12-10T12:09:25;46.10;;;19.83;;
19446;SDS011;9862;49.462;11.054;2022-12-10T12:12:03;41.60;;;19.45;;
19446;SDS011;9862;49.462;11.054;2022-12-10T12:14:44;39.95;;;20.75;;
19446;SDS011;9862;49.462;11.054;2022-12-10T12:17:16;51.55;;;23.10;;
19446;SDS011;9862;49.462;11.054;2022-12-10T12:19:48;40.58;;;20.30;;
19446;SDS011;9862;49.462;11.054;2022-12-10T12:22:21;43.58;;;19.88;;
19446;SDS011;9862;49.462;11.054;2022-12-10T12:24:50;41.83;;;19.63;;
19446;SDS011;9862;49.462;11.054;2022-12-10T12:27:24;43.38;;;20.30;;
19446;SDS011;9862;49.462;11.054;2022-12-10T12:29:58;40.50;;;20.85;;
19446;SDS011;9862;49.462;11.054;2022-12-10T12:32:31;48.75;;;20.60;;
19446;SDS011;9862;49.462;11.054;2022-12-10T12:35:09;51.33;;;22.38;;
19446;SDS011;9862;49.462;11.054;2022-12-10T12:37:40;40.22;;;19.77;;
19446;SDS011;9862;49.462;11.054;2022-12-10T12:40:12;45.38;;;21.63;;
19446;SDS011;9862;49.462;11.054;2022-12-10T12:42:48;46.47;;;22.15;;
19446;SDS011;9862;49.462;11.054;2022-12-10T12:45:21;46.72;;;20.67;;
19446;SDS011;9862;49.462;11.054;2022-12-10T12:47:56;45.28;;;20.85;;
19446;SDS011;9862;49.462;11.054;2022-12-10T12:50:30;44.92;;;20.80;;
19446;SDS011;9862;49.462;11.054;2022-12-10T12:53:08;49.08;;;20.58;;
19446;SDS011;9862;49.462;11.054;2022-12-10T12:55:39;43.08;;;19.63;;
19446;SDS011;9862;49.462;11.054;2022-12-10T12:58:15;45.50;;;20.63;;
19446;SDS011;9862;49.462;11.054;2022-12-10T13:00:52;44.30;;;21.85;;
19446;SDS011;9862;49.462;11.054;2022-12-10T13:03:27;49.53;;;21.95;;
19446;SDS011;9862;49.462;11.054;2022-12-10T13:06:11;52.83;;;22.45;;
19446;SDS011;9862;49.462;11.054;2022-12-10T13:08:43;41.78;;;18.75;;
19446;SDS011;9862;49.462;11.054;2022-12-10T13:11:18;44.15;;;20.00;;
19446;SDS011;9862;49.462;11.054;2022-12-10T13:14:12;45.35;;;20.48;;
19446;SDS011;9862;49.462;11.054;2022-12-10T13:17:05;45.83;;;20.00;;
19446;SDS011;9862;49.462;11.054;2022-12-10T13:19:36;41.67;;;20.63;;
19446;SDS011;9862;49.462;11.054;2022-12-10T13:22:04;43.42;;;19.73;;
19446;SDS011;9862;49.462;11.054;2022-12-10T13:24:45;39.53;;;19.25;;
19446;SDS011;9862;49.462;11.054;2022-12-10T13:27:29;41.40;;;20.50;;
19446;SDS011;9862;49.462;11.054;2022-12-10T13:29:59;40.95;;;20.20;;
19446;SDS011;9862;49.462;11.054;2022-12-10T13:32:42;40.38;;;19.13;;
19446;SDS011;9862;49.462;11.054;2022-12-10T13:35:25;38.25;;;18.48;;
19446;SDS011;9862;49.462;11.054;2022-12-10T13:37:56;39.55;;;19.55;;
19446;SDS011;9862;49.462;11.054;2022-12-10T13:40:37;41.90;;;20.00;;
19446;SDS011;9862;49.462;11.054;2022-12-10T13:43:25;36.13;;;18.17;;
19446;SDS011;9862;49.462;11.054;2022-12-10T13:46:25;42.13;;;19.63;;
19446;SDS011;9862;49.462;11.054;2022-12-10T13:48:56;41.67;;;18.88;;
19446;SDS011;9862;49.462;11.054;2022-12-10T13:51:28;37.88;;;18.65;;
19446;SDS011;9862;49.462;11.054;2022-12-10T13:56:58;41.17;;;20.30;;
19446;SDS011;9862;49.462;11.054;2022-12-10T13:59:37;39.33;;;20.40;;
19446;SDS011;9862;49.462;11.054;2022-12-10T14:02:34;41.75;;;19.35;;
19446;SDS011;9862;49.462;11.054;2022-12-10T14:05:19;43.67;;;20.88;;
19446;SDS011;9862;49.462;11.054;2022-12-10T14:07:55;41.25;;;19.58;;
19446;SDS011;9862;49.462;11.054;2022-12-10T14:10:26;37.17;;;19.65;;
19446;SDS011;9862;49.462;11.054;2022-12-10T14:12:56;40.28;;;20.10;;
19446;SDS011;9862;49.462;11.054;2022-12-10T14:15:25;43.90;;;20.75;;
19446;SDS011;9862;49.462;11.054;2022-12-10T14:17:54;44.95;;;21.30;;
19446;SDS011;9862;49.462;11.054;2022-12-10T14:20:25;39.33;;;18.88;;
19446;SDS011;9862;49.462;11.054;2022-12-10T14:22:53;39.10;;;19.17;;
19446;SDS011;9862;49.462;11.054;2022-12-10T14:25:43;38.38;;;18.80;;
19446;SDS011;9862;49.462;11.054;2022-12-10T14:28:11;39.88;;;19.02;;
19446;SDS011;9862;49.462;11.054;2022-12-10T14:30:41;43.13;;;19.90;;
19446;SDS011;9862;49.462;11.054;2022-12-10T14:33:09;46.78;;;21.17;;
19446;SDS011;9862;49.462;11.054;2022-12-10T14:35:40;43.40;;;19.60;;
19446;SDS011;9862;49.462;11.054;2022-12-10T14:38:14;41.67;;;20.75;;
19446;SDS011;9862;49.462;11.054;2022-12-10T14:40:46;42.85;;;21.13;;
19446;SDS011;9862;49.462;11.054;2022-12-10T14:43:14;38.97;;;19.25;;
19446;SDS011;9862;49.462;11.054;2022-12-10T14:45:44;41.55;;;19.85;;
19446;SDS011;9862;49.462;11.054;2022-12-10T14:48:14;45.20;;;21.08;;